Aviation Digital Data Service (ADDS)

Output produced by METARs form (0335 UTC 23 June 2017)
found at http://aviationweather.gov/adds/metars/
 
KRME 222320Z 2300/2324 VRB03KT P6SM BKN080 
     FM231500 21010G20KT P6SM BKN060 
     FM231700 21011G20KT 5SM -SHRA OVC035 
     TEMPO 2320/2324 OVC025